Time;durP1;ratioP1;P1;durP2;ratioP2;P2;SDS_P1;SDS_P2;PMS_P1;PMS_P2;Temp;Humidity;BMP_temperature;BMP_pressure;BME280_temperature;BME280_humidity;BME280_pressure;Samples;Min_cycle;Max_cycle;Signal;HPM_P1;HPM_P2
2021/03/07 00:00:13;;;;;;;149.95;67.63;;;;;;;;;;5118332;28;20026;-84
2021/03/07 00:02:39;;;;;;;131.65;62.40;;;;;;;;;;5117795;28;20058;-84
2021/03/07 00:05:06;;;;;;;134.05;63.80;;;;;;;;;;5117160;28;20427;-84
2021/03/07 00:07:32;;;;;;;124.05;60.92;;;;;;;;;;5118161;28;20055;-84
2021/03/07 00:09:58;;;;;;;112.30;57.53;;;;;;;;;;5118262;28;20057;-84
2021/03/07 00:12:24;;;;;;;102.30;50.05;;;;;;;;;;5118201;28;20058;-85
2021/03/07 00:14:50;;;;;;;99.47;48.13;;;;;;;;;;5118003;28;20027;-84
2021/03/07 00:17:16;;;;;;;106.05;48.38;;;;;;;;;;5116816;28;20019;-85
2021/03/07 00:19:42;;;;;;;108.30;48.47;;;;;;;;;;5116762;28;20032;-84
2021/03/07 00:22:08;;;;;;;120.43;48.90;;;;;;;;;;5117866;28;20435;-83
2021/03/07 00:24:34;;;;;;;111.95;48.90;;;;;;;;;;5117051;28;20024;-83
2021/03/07 00:27:00;;;;;;;102.57;44.78;;;;;;;;;;5117831;28;20020;-84
2021/03/07 00:29:27;;;;;;;111.15;50.05;;;;;;;;;;5117683;28;20406;-84
2021/03/07 00:31:53;;;;;;;128.60;54.13;;;;;;;;;;5118043;28;20027;-84
2021/03/07 00:34:19;;;;;;;171.00;60.55;;;;;;;;;;5117700;28;20133;-83
2021/03/07 00:36:46;;;;;;;173.40;62.20;;;;;;;;;;5118147;28;20023;-84
2021/03/07 00:39:12;;;;;;;153.30;63.15;;;;;;;;;;5117817;28;20462;-84
2021/03/07 00:41:38;;;;;;;155.80;60.92;;;;;;;;;;5117242;28;20114;-84
2021/03/07 00:44:05;;;;;;;158.25;62.67;;;;;;;;;;5117636;28;20076;-84
2021/03/07 00:46:32;;;;;;;148.15;64.63;;;;;;;;;;5117580;28;20069;-84
2021/03/07 00:48:58;;;;;;;158.52;66.28;;;;;;;;;;5117401;28;20325;-81
2021/03/07 00:51:24;;;;;;;164.98;70.45;;;;;;;;;;5117158;28;20022;-82
2021/03/07 00:53:51;;;;;;;165.85;71.38;;;;;;;;;;5117452;28;20020;-84
2021/03/07 00:56:17;;;;;;;155.48;68.80;;;;;;;;;;5117872;28;20015;-84
2021/03/07 00:58:43;;;;;;;170.00;72.55;;;;;;;;;;5117639;28;20023;-84
2021/03/07 01:01:09;;;;;;;161.15;71.90;;;;;;;;;;5116248;28;20100;-84
2021/03/07 01:03:35;;;;;;;164.68;72.25;;;;;;;;;;5116628;28;20172;-85
2021/03/07 01:06:01;;;;;;;160.60;71.28;;;;;;;;;;5117578;28;20149;-85
2021/03/07 01:08:27;;;;;;;156.07;70.50;;;;;;;;;;5117505;28;20023;-85
2021/03/07 01:10:54;;;;;;;154.43;67.50;;;;;;;;;;5117694;28;20394;-85
2021/03/07 01:13:20;;;;;;;163.75;70.75;;;;;;;;;;5117813;28;20019;-84
2021/03/07 01:15:46;;;;;;;154.27;69.88;;;;;;;;;;5117316;28;20044;-84
2021/03/07 01:18:13;;;;;;;167.18;68.90;;;;;;;;;;5117350;28;20031;-84
2021/03/07 01:20:40;;;;;;;163.73;69.90;;;;;;;;;;5117340;28;20473;-84
2021/03/07 01:23:07;;;;;;;171.98;70.95;;;;;;;;;;5117657;28;20077;-84
2021/03/07 01:25:33;;;;;;;169.55;71.05;;;;;;;;;;5117502;28;20050;-84
2021/03/07 01:27:59;;;;;;;184.48;74.18;;;;;;;;;;5117351;28;20073;-84
2021/03/07 01:30:26;;;;;;;153.30;67.57;;;;;;;;;;5117356;28;20111;-84
2021/03/07 01:32:52;;;;;;;153.85;66.35;;;;;;;;;;5117465;28;20035;-84
2021/03/07 01:35:19;;;;;;;151.32;63.60;;;;;;;;;;5118941;28;20055;-84
2021/03/07 01:37:45;;;;;;;142.55;62.22;;;;;;;;;;5121195;28;20066;-84
2021/03/07 01:40:20;;;;;;;134.57;59.55;;;;;;;;;;5121153;28;20019;-84
2021/03/07 01:42:47;;;;;;;131.80;59.40;;;;;;;;;;5121138;28;20114;-84
2021/03/07 01:45:13;;;;;;;133.02;59.40;;;;;;;;;;5119913;28;20023;-84
2021/03/07 01:47:43;;;;;;;131.88;59.17;;;;;;;;;;5120708;28;20019;-84
2021/03/07 01:50:09;;;;;;;128.80;59.75;;;;;;;;;;5120775;28;20305;-84
2021/03/07 01:52:36;;;;;;;133.00;58.90;;;;;;;;;;5119713;28;20115;-84
2021/03/07 01:55:02;;;;;;;130.77;59.22;;;;;;;;;;5120875;28;20043;-84
2021/03/07 01:57:29;;;;;;;121.90;57.25;;;;;;;;;;5119384;28;20028;-84
2021/03/07 01:59:57;;;;;;;117.68;54.03;;;;;;;;;;5119095;28;20028;-84
2021/03/07 02:02:23;;;;;;;120.85;54.45;;;;;;;;;;5120313;28;20043;-84
2021/03/07 02:04:49;;;;;;;114.75;53.20;;;;;;;;;;5120667;28;20027;-84
2021/03/07 02:07:15;;;;;;;119.85;55.78;;;;;;;;;;5120761;28;20439;-84
2021/03/07 02:09:41;;;;;;;125.00;56.17;;;;;;;;;;5120535;28;20023;-84
2021/03/07 02:12:08;;;;;;;123.45;57.53;;;;;;;;;;5120542;28;20031;-84
2021/03/07 02:14:35;;;;;;;137.85;60.95;;;;;;;;;;5120284;28;20023;-84
2021/03/07 02:17:01;;;;;;;137.52;61.22;;;;;;;;;;5120100;28;20031;-83
2021/03/07 02:19:30;;;;;;;138.73;62.17;;;;;;;;;;5120175;28;20028;-84
2021/03/07 02:21:58;;;;;;;144.15;63.42;;;;;;;;;;5119947;28;20047;-84
2021/03/07 02:24:24;;;;;;;152.60;66.82;;;;;;;;;;5119013;28;20100;-84
2021/03/07 02:26:51;;;;;;;151.88;65.65;;;;;;;;;;5118720;28;20055;-84
2021/03/07 02:29:19;;;;;;;179.93;75.00;;;;;;;;;;5119855;28;20428;-85
2021/03/07 02:31:50;;;;;;;248.32;91.75;;;;;;;;;;5120110;28;20031;-85
2021/03/07 02:34:19;;;;;;;245.93;90.03;;;;;;;;;;5119871;28;20359;-85
2021/03/07 02:36:50;;;;;;;267.70;98.97;;;;;;;;;;5118807;28;20035;-85
2021/03/07 02:39:18;;;;;;;296.00;99.78;;;;;;;;;;5119688;28;20474;-84
2021/03/07 02:41:45;;;;;;;313.45;108.22;;;;;;;;;;5119938;28;20050;-84
2021/03/07 02:44:13;;;;;;;373.58;124.90;;;;;;;;;;5119817;28;20035;-85
2021/03/07 02:46:40;;;;;;;359.58;124.45;;;;;;;;;;5118602;28;20030;-83
2021/03/07 02:49:08;;;;;;;318.13;117.43;;;;;;;;;;5119500;28;20420;-84
2021/03/07 02:51:34;;;;;;;284.38;105.97;;;;;;;;;;5119789;28;20032;-85
2021/03/07 02:54:04;;;;;;;241.45;103.28;;;;;;;;;;5119491;28;20314;-84
2021/03/07 02:56:32;;;;;;;221.38;100.43;;;;;;;;;;5119016;28;20043;-84
2021/03/07 02:59:02;;;;;;;222.32;102.97;;;;;;;;;;5119545;28;20038;-84
2021/03/07 03:01:29;;;;;;;245.35;109.38;;;;;;;;;;5119293;28;20061;-84
2021/03/07 03:03:55;;;;;;;249.55;110.20;;;;;;;;;;5119678;28;20023;-84
2021/03/07 03:06:22;;;;;;;247.20;111.20;;;;;;;;;;5119439;28;20031;-84
2021/03/07 03:08:55;;;;;;;242.85;108.55;;;;;;;;;;5119048;28;20023;-85
2021/03/07 03:11:24;;;;;;;233.75;102.88;;;;;;;;;;5119154;28;20023;-84
2021/03/07 03:13:51;;;;;;;204.32;96.45;;;;;;;;;;5119063;28;20026;-84
2021/03/07 03:16:17;;;;;;;183.95;80.95;;;;;;;;;;5119217;28;20145;-84
2021/03/07 03:18:45;;;;;;;193.77;83.35;;;;;;;;;;5119130;28;20031;-84
2021/03/07 03:21:13;;;;;;;182.50;80.75;;;;;;;;;;5119020;28;20071;-84
2021/03/07 03:23:39;;;;;;;170.45;80.35;;;;;;;;;;5118385;28;20024;-85
2021/03/07 03:26:05;;;;;;;165.23;78.97;;;;;;;;;;5119005;28;20027;-85
2021/03/07 03:28:32;;;;;;;192.15;88.78;;;;;;;;;;5118673;28;20027;-84
2021/03/07 03:30:58;;;;;;;179.23;87.32;;;;;;;;;;5118872;28;20485;-84
2021/03/07 03:33:27;;;;;;;166.55;75.55;;;;;;;;;;5118966;28;20054;-86
2021/03/07 03:35:54;;;;;;;143.52;69.13;;;;;;;;;;5119054;28;20019;-86
2021/03/07 03:38:22;;;;;;;148.13;71.75;;;;;;;;;;5119062;28;20397;-86
2021/03/07 03:40:54;;;;;;;141.82;71.40;;;;;;;;;;5118795;28;20060;-86
2021/03/07 03:43:21;;;;;;;146.80;69.63;;;;;;;;;;5118748;28;20114;-86
2021/03/07 03:45:48;;;;;;;133.48;64.72;;;;;;;;;;5118391;28;20256;-85
2021/03/07 03:48:19;;;;;;;135.75;64.70;;;;;;;;;;5100512;28;20031;-85
2021/03/07 03:50:46;;;;;;;133.07;62.88;;;;;;;;;;5118852;28;20020;-84
2021/03/07 03:53:14;;;;;;;138.40;64.18;;;;;;;;;;5117427;28;20047;-85
2021/03/07 03:55:41;;;;;;;142.95;66.78;;;;;;;;;;5118679;28;20047;-85
2021/03/07 03:58:08;;;;;;;148.32;69.25;;;;;;;;;;5118128;28;20028;-85
2021/03/07 04:00:37;;;;;;;174.05;84.07;;;;;;;;;;5118655;28;20035;-85
2021/03/07 04:03:04;;;;;;;180.55;84.53;;;;;;;;;;5118562;28;20062;-85
2021/03/07 04:05:30;;;;;;;188.20;89.47;;;;;;;;;;5118583;28;20016;-85
2021/03/07 04:07:57;;;;;;;165.95;79.90;;;;;;;;;;5117365;28;20016;-85
2021/03/07 04:10:24;;;;;;;177.13;85.50;;;;;;;;;;5118253;28;20103;-84
2021/03/07 04:12:51;;;;;;;152.50;74.35;;;;;;;;;;5118090;28;20016;-85
2021/03/07 04:15:18;;;;;;;150.57;70.82;;;;;;;;;;5118316;28;20024;-85
2021/03/07 04:17:45;;;;;;;137.73;65.47;;;;;;;;;;5118351;28;20019;-85
2021/03/07 04:20:12;;;;;;;132.38;63.20;;;;;;;;;;5117815;28;20402;-85
2021/03/07 04:22:39;;;;;;;129.15;59.92;;;;;;;;;;5117963;28;20031;-85
2021/03/07 04:25:06;;;;;;;122.10;57.60;;;;;;;;;;5118131;28;20074;-83
2021/03/07 04:27:33;;;;;;;119.63;57.33;;;;;;;;;;5118006;28;20024;-85
2021/03/07 04:30:00;;;;;;;130.00;59.05;;;;;;;;;;5118058;28;20028;-85
2021/03/07 04:32:26;;;;;;;110.50;54.67;;;;;;;;;;5118184;28;20020;-84
2021/03/07 04:34:52;;;;;;;141.07;61.80;;;;;;;;;;5117897;28;20366;-84
2021/03/07 04:37:18;;;;;;;157.70;65.43;;;;;;;;;;5116888;28;20038;-85
2021/03/07 04:39:45;;;;;;;158.60;65.65;;;;;;;;;;5117741;28;20024;-83
2021/03/07 04:42:11;;;;;;;129.73;59.75;;;;;;;;;;5117999;28;20032;-85
2021/03/07 04:44:38;;;;;;;142.85;64.05;;;;;;;;;;5117756;28;20432;-86
2021/03/07 04:47:04;;;;;;;187.00;78.07;;;;;;;;;;5117038;28;20404;-86
2021/03/07 04:49:30;;;;;;;170.10;74.72;;;;;;;;;;5117865;28;20052;-85
2021/03/07 04:51:56;;;;;;;169.93;72.72;;;;;;;;;;5117641;28;20394;-85
2021/03/07 04:54:22;;;;;;;137.65;62.78;;;;;;;;;;5117682;28;20433;-84
2021/03/07 04:56:48;;;;;;;143.35;67.65;;;;;;;;;;5117483;28;20027;-85
2021/03/07 04:59:15;;;;;;;131.73;62.78;;;;;;;;;;5117631;28;20055;-85
2021/03/07 05:01:41;;;;;;;123.85;61.10;;;;;;;;;;5117673;28;20055;-85
2021/03/07 05:04:07;;;;;;;134.77;65.35;;;;;;;;;;5117756;28;20023;-85
2021/03/07 05:06:35;;;;;;;140.18;68.15;;;;;;;;;;5117713;28;20020;-85
2021/03/07 05:09:01;;;;;;;153.77;73.15;;;;;;;;;;5117674;28;20020;-85
2021/03/07 05:11:27;;;;;;;132.05;64.85;;;;;;;;;;5121405;28;20028;-85
2021/03/07 05:13:54;;;;;;;132.05;67.22;;;;;;;;;;5121544;28;20080;-84
2021/03/07 05:16:20;;;;;;;158.15;75.60;;;;;;;;;;5120464;28;20031;-85
2021/03/07 05:18:47;;;;;;;163.13;79.45;;;;;;;;;;5120557;28;20325;-85
2021/03/07 05:21:13;;;;;;;153.35;73.00;;;;;;;;;;5121525;28;20027;-85
2021/03/07 05:23:39;;;;;;;122.10;62.65;;;;;;;;;;5121374;28;20078;-85
2021/03/07 05:26:06;;;;;;;135.98;66.22;;;;;;;;;;5121229;28;20083;-84
2021/03/07 05:28:32;;;;;;;130.20;64.45;;;;;;;;;;5120191;28;20024;-84
2021/03/07 05:30:58;;;;;;;121.32;59.38;;;;;;;;;;5121385;28;20038;-85
2021/03/07 05:33:24;;;;;;;108.00;56.65;;;;;;;;;;5121475;28;20023;-84
2021/03/07 05:35:51;;;;;;;117.00;61.38;;;;;;;;;;5121276;28;20047;-85
2021/03/07 05:38:17;;;;;;;118.75;59.08;;;;;;;;;;5121184;28;20035;-85
2021/03/07 05:40:43;;;;;;;128.00;62.15;;;;;;;;;;5121077;28;20099;-85
2021/03/07 05:43:09;;;;;;;134.00;62.28;;;;;;;;;;5120876;28;20016;-84
2021/03/07 05:45:53;;;;;;;197.85;78.20;;;;;;;;;;5121210;28;20147;-85
2021/03/07 05:48:22;;;;;;;155.60;67.22;;;;;;;;;;5119975;28;20335;-86
2021/03/07 05:50:49;;;;;;;189.00;79.53;;;;;;;;;;5121148;28;20019;-85
2021/03/07 05:53:15;;;;;;;220.73;91.65;;;;;;;;;;5121126;28;20031;-85
2021/03/07 05:55:41;;;;;;;224.43;93.40;;;;;;;;;;5120685;28;20023;-85
2021/03/07 05:58:07;;;;;;;193.77;84.22;;;;;;;;;;5121093;28;20026;-85
2021/03/07 06:00:34;;;;;;;174.70;75.65;;;;;;;;;;5120791;28;20023;-85
2021/03/07 06:03:00;;;;;;;176.60;78.28;;;;;;;;;;5119553;28;20483;-85
2021/03/07 06:05:26;;;;;;;184.93;83.07;;;;;;;;;;5119529;28;20055;-85
2021/03/07 06:07:52;;;;;;;123.78;59.33;;;;;;;;;;5120568;28;20366;-85
2021/03/07 06:10:20;;;;;;;113.07;50.78;;;;;;;;;;5120439;28;20398;-84
2021/03/07 06:13:00;;;;;;;117.13;51.35;;;;;;;;;;5120822;28;20069;-84
2021/03/07 06:15:26;;;;;;;103.15;47.22;;;;;;;;;;5120716;28;20016;-84
2021/03/07 06:17:52;;;;;;;82.50;41.72;;;;;;;;;;5120595;28;20039;-85
2021/03/07 06:20:20;;;;;;;77.55;39.85;;;;;;;;;;5120422;28;20057;-85
2021/03/07 06:22:53;;;;;;;69.53;36.65;;;;;;;;;;5120311;28;20352;-85
2021/03/07 06:25:19;;;;;;;65.18;35.17;;;;;;;;;;5120476;28;20023;-85
2021/03/07 06:27:45;;;;;;;59.80;34.20;;;;;;;;;;5119898;28;20027;-85
2021/03/07 06:30:12;;;;;;;90.38;45.70;;;;;;;;;;5120334;28;20444;-84
2021/03/07 06:32:42;;;;;;;79.45;46.78;;;;;;;;;;5119266;28;20048;-84
2021/03/07 06:35:10;;;;;;;65.75;37.78;;;;;;;;;;5120072;28;20024;-86
2021/03/07 06:38:03;;;;;;;61.95;36.40;;;;;;;;;;5120002;28;20015;-85
2021/03/07 06:40:35;;;;;;;215.18;96.88;;;;;;;;;;5117153;28;20031;-84
2021/03/07 06:43:02;;;;;;;132.05;71.75;;;;;;;;;;5118921;28;20446;-84
2021/03/07 06:45:38;;;;;;;86.95;48.08;;;;;;;;;;5118734;28;20317;-84
2021/03/07 06:48:04;;;;;;;70.93;40.60;;;;;;;;;;5119565;28;20093;-84
2021/03/07 06:50:31;;;;;;;96.53;42.25;;;;;;;;;;5119894;28;20034;-84
2021/03/07 06:52:58;;;;;;;85.68;38.90;;;;;;;;;;5118598;28;20425;-85
2021/03/07 06:55:28;;;;;;;66.35;34.53;;;;;;;;;;5119836;28;20015;-89
2021/03/07 06:57:54;;;;;;;65.10;32.78;;;;;;;;;;5119774;28;20065;-84
2021/03/07 07:00:39;;;;;;;76.88;38.35;;;;;;;;;;5119554;28;20456;-83
2021/03/07 07:03:10;;;;;;;66.65;35.03;;;;;;;;;;5119401;28;20051;-84
2021/03/07 07:05:36;;;;;;;81.63;35.08;;;;;;;;;;5118236;28;20042;-85
2021/03/07 07:08:02;;;;;;;68.53;33.28;;;;;;;;;;5119331;28;20024;-84
2021/03/07 07:10:28;;;;;;;45.63;25.80;;;;;;;;;;5116983;28;20043;-84
2021/03/07 07:13:03;;;;;;;50.97;27.77;;;;;;;;;;5119509;28;20099;-84
2021/03/07 07:15:29;;;;;;;46.42;25.20;;;;;;;;;;5120054;27;20023;-84
2021/03/07 07:17:55;;;;;;;41.88;23.70;;;;;;;;;;5119121;28;20070;-84
2021/03/07 07:20:21;;;;;;;42.92;24.73;;;;;;;;;;5119090;28;20024;-84
2021/03/07 07:22:48;;;;;;;37.10;22.30;;;;;;;;;;5119100;28;20028;-82
2021/03/07 07:25:14;;;;;;;35.35;21.67;;;;;;;;;;5118919;28;20023;-83
2021/03/07 07:27:40;;;;;;;32.38;20.60;;;;;;;;;;5118513;28;20149;-84
2021/03/07 07:30:06;;;;;;;38.53;20.55;;;;;;;;;;5119181;28;20019;-84
2021/03/07 07:32:38;;;;;;;43.67;26.00;;;;;;;;;;5118552;28;20032;-83
2021/03/07 07:35:10;;;;;;;37.10;21.35;;;;;;;;;;5119036;28;20024;-83
2021/03/07 07:37:40;;;;;;;193.70;77.38;;;;;;;;;;5118832;28;20048;-83
2021/03/07 07:40:07;;;;;;;73.88;37.38;;;;;;;;;;5118564;28;20043;-83
2021/03/07 07:42:35;;;;;;;55.25;28.65;;;;;;;;;;5118571;28;20031;-83
2021/03/07 07:45:11;;;;;;;72.70;37.45;;;;;;;;;;5118555;28;20024;-83
2021/03/07 07:47:46;;;;;;;65.68;34.40;;;;;;;;;;5117330;28;20026;-83
2021/03/07 07:50:36;;;;;;;52.95;28.67;;;;;;;;;;5118255;28;20294;-84
2021/03/07 07:53:02;;;;;;;65.28;33.80;;;;;;;;;;5118218;28;20422;-83
2021/03/07 07:55:47;;;;;;;59.75;29.20;;;;;;;;;;5117973;28;20031;-83
2021/03/07 07:58:33;;;;;;;66.88;32.63;;;;;;;;;;5118139;28;20065;-83
2021/03/07 08:01:00;;;;;;;51.30;26.42;;;;;;;;;;5035468;28;20050;-83
2021/03/07 08:03:33;;;;;;;37.38;19.52;;;;;;;;;;5035706;28;20112;-83
2021/03/07 08:06:01;;;;;;;43.78;21.33;;;;;;;;;;5035366;28;20080;-85
2021/03/07 08:08:34;;;;;;;29.50;15.70;;;;;;;;;;5035640;28;20087;-83
2021/03/07 08:11:01;;;;;;;25.90;14.32;;;;;;;;;;5019361;28;20442;-83
2021/03/07 08:13:27;;;;;;;20.92;12.75;;;;;;;;;;5035693;28;20033;-84
2021/03/07 08:15:54;;;;;;;23.23;13.45;;;;;;;;;;5035778;28;20098;-83
2021/03/07 08:18:24;;;;;;;26.48;14.02;;;;;;;;;;5035676;28;20121;-83
2021/03/07 08:20:50;;;;;;;36.33;17.17;;;;;;;;;;5034723;28;20061;-83
2021/03/07 08:23:17;;;;;;;79.63;37.20;;;;;;;;;;5035447;28;20103;-83
2021/03/07 08:25:49;;;;;;;38.13;19.90;;;;;;;;;;5035593;28;20034;-82
2021/03/07 08:28:27;;;;;;;21.85;13.00;;;;;;;;;;5035462;28;20028;-83
2021/03/07 08:31:01;;;;;;;22.20;12.57;;;;;;;;;;5018809;28;20068;-83
2021/03/07 08:33:34;;;;;;;28.60;14.73;;;;;;;;;;5019029;28;20132;-83
2021/03/07 08:36:17;;;;;;;43.17;23.23;;;;;;;;;;5035392;28;20104;-84
2021/03/07 08:38:52;;;;;;;47.58;31.02;;;;;;;;;;5099353;28;20039;-83
2021/03/07 08:41:22;;;;;;;29.20;13.35;;;;;;;;;;5117679;28;20027;-83
2021/03/07 08:43:51;;;;;;;27.55;13.65;;;;;;;;;;5117618;28;20405;-84
2021/03/07 08:46:21;;;;;;;27.17;11.93;;;;;;;;;;5121470;28;20032;-83
2021/03/07 08:49:10;;;;;;;19.77;9.35;;;;;;;;;;5121774;28;20069;-83
2021/03/07 08:51:38;;;;;;;24.75;11.90;;;;;;;;;;5107869;28;20032;-83
2021/03/07 08:54:08;;;;;;;48.20;13.20;;;;;;;;;;5121784;28;20027;-84
2021/03/07 08:56:34;;;;;;;32.35;11.07;;;;;;;;;;5121782;28;20031;-83
2021/03/07 08:59:00;;;;;;;18.02;9.63;;;;;;;;;;5121611;28;20034;-83
2021/03/07 09:01:26;;;;;;;19.35;10.95;;;;;;;;;;5121645;28;20055;-82
2021/03/07 09:04:00;;;;;;;19.75;9.55;;;;;;;;;;5121670;28;20129;-85
2021/03/07 09:06:35;;;;;;;19.38;9.75;;;;;;;;;;5121480;28;20024;-82
2021/03/07 09:09:21;;;;;;;20.17;9.73;;;;;;;;;;5121394;28;20302;-82
2021/03/07 09:11:47;;;;;;;12.43;7.18;;;;;;;;;;5121520;28;20016;-83
2021/03/07 09:14:13;;;;;;;13.55;8.23;;;;;;;;;;5120323;28;20421;-83
2021/03/07 09:16:40;;;;;;;15.18;8.10;;;;;;;;;;5121217;28;20052;-83
2021/03/07 09:19:23;;;;;;;16.30;9.05;;;;;;;;;;5121272;28;20020;-82
2021/03/07 09:22:08;;;;;;;14.13;8.00;;;;;;;;;;5121303;28;20028;-83
2021/03/07 09:24:34;;;;;;;12.35;7.32;;;;;;;;;;5120994;28;20021;-83
2021/03/07 09:27:13;;;;;;;11.70;6.80;;;;;;;;;;5121351;28;20031;-84
2021/03/07 09:29:56;;;;;;;20.50;11.35;;;;;;;;;;5120196;28;20118;-83
2021/03/07 09:32:26;;;;;;;13.77;9.02;;;;;;;;;;5113125;28;20051;-81
2021/03/07 09:34:53;;;;;;;17.20;9.55;;;;;;;;;;5108092;28;20051;-81
2021/03/07 09:37:19;;;;;;;13.75;7.65;;;;;;;;;;5113290;28;20028;-82
2021/03/07 09:39:46;;;;;;;19.92;10.60;;;;;;;;;;5102920;28;20081;-82
2021/03/07 09:42:12;;;;;;;19.40;10.80;;;;;;;;;;5116592;28;20031;-83
2021/03/07 09:44:38;;;;;;;19.30;10.90;;;;;;;;;;5105112;28;20123;-83
2021/03/07 09:47:04;;;;;;;19.95;10.32;;;;;;;;;;5100538;28;20020;-83
2021/03/07 09:49:30;;;;;;;19.95;10.52;;;;;;;;;;5100242;28;20020;-83
2021/03/07 09:51:57;;;;;;;22.95;13.85;;;;;;;;;;5100332;28;20085;-87
2021/03/07 09:54:23;;;;;;;18.85;11.05;;;;;;;;;;5100246;28;20120;-85
2021/03/07 09:56:52;;;;;;;22.85;13.07;;;;;;;;;;5099776;28;20319;-82
2021/03/07 09:59:25;;;;;;;23.13;11.50;;;;;;;;;;5100243;28;20023;-84
2021/03/07 10:01:53;;;;;;;40.13;21.00;;;;;;;;;;5099874;28;20130;-77
2021/03/07 10:04:25;;;;;;;21.77;13.48;;;;;;;;;;5099918;28;20024;-76
2021/03/07 10:06:51;;;;;;;20.75;11.15;;;;;;;;;;5099774;28;20028;-77
2021/03/07 10:09:17;;;;;;;17.02;9.48;;;;;;;;;;5103465;28;20028;-80
2021/03/07 10:11:54;;;;;;;17.25;10.10;;;;;;;;;;5101332;28;20028;-77
2021/03/07 10:14:24;;;;;;;23.05;9.77;;;;;;;;;;5119493;28;20024;-85
2021/03/07 10:16:52;;;;;;;24.42;13.25;;;;;;;;;;5098838;28;20410;-85
2021/03/07 10:19:18;;;;;;;19.80;9.75;;;;;;;;;;5100251;28;20032;-84
2021/03/07 10:21:45;;;;;;;23.63;12.95;;;;;;;;;;5100176;28;20028;-85
2021/03/07 10:24:18;;;;;;;17.35;10.02;;;;;;;;;;5100939;28;20020;-85
2021/03/07 10:26:46;;;;;;;20.63;12.32;;;;;;;;;;5113783;28;20020;-84
2021/03/07 10:29:29;;;;;;;20.63;11.30;;;;;;;;;;5110843;28;20023;-85
2021/03/07 10:32:23;;;;;;;15.48;9.05;;;;;;;;;;5109063;28;20028;-84
2021/03/07 10:34:53;;;;;;;18.08;10.02;;;;;;;;;;5104902;28;20054;-85
2021/03/07 10:37:39;;;;;;;45.05;25.48;;;;;;;;;;5117105;28;20031;-83
2021/03/07 10:40:06;;;;;;;17.40;10.13;;;;;;;;;;5118237;28;20034;-84
2021/03/07 10:42:33;;;;;;;19.55;10.50;;;;;;;;;;5099572;28;20035;-84
2021/03/07 10:45:13;;;;;;;18.15;9.70;;;;;;;;;;5099083;28;20024;-84
2021/03/07 10:47:39;;;;;;;19.13;10.55;;;;;;;;;;5099131;28;20349;-84
2021/03/07 10:50:05;;;;;;;22.83;10.27;;;;;;;;;;5113293;28;20102;-84
2021/03/07 10:52:31;;;;;;;22.40;11.10;;;;;;;;;;5118739;28;20026;-84
2021/03/07 10:54:58;;;;;;;17.15;9.23;;;;;;;;;;5099681;28;20089;-93
2021/03/07 10:57:24;;;;;;;14.93;8.73;;;;;;;;;;5116286;28;20024;-91
2021/03/07 10:59:52;;;;;;;14.80;10.15;;;;;;;;;;5120026;28;20110;-91
2021/03/07 11:02:19;;;;;;;11.07;7.35;;;;;;;;;;5118705;28;20465;-93
2021/03/07 11:04:45;;;;;;;66.43;36.75;;;;;;;;;;5119929;28;20031;-93
2021/03/07 11:07:12;;;;;;;44.67;22.45;;;;;;;;;;5118796;28;20020;-92
2021/03/07 11:09:39;;;;;;;17.98;10.50;;;;;;;;;;5120084;28;20405;-91
2021/03/07 11:12:06;;;;;;;20.98;11.38;;;;;;;;;;5119570;28;20087;-91
2021/03/07 11:14:32;;;;;;;15.02;9.27;;;;;;;;;;5118687;28;20027;-92
2021/03/07 11:16:58;;;;;;;17.48;10.27;;;;;;;;;;5119116;28;20035;-90
2021/03/07 11:19:24;;;;;;;19.67;9.52;;;;;;;;;;5119188;28;20313;-92
2021/03/07 11:21:50;;;;;;;15.75;9.32;;;;;;;;;;5119656;28;20129;-91
2021/03/07 11:24:16;;;;;;;11.32;6.97;;;;;;;;;;5119396;28;20031;-91
2021/03/07 11:26:42;;;;;;;14.70;8.98;;;;;;;;;;5119270;28;20484;-93
2021/03/07 11:29:09;;;;;;;30.08;15.45;;;;;;;;;;5118032;28;20028;-92
2021/03/07 11:31:35;;;;;;;21.55;10.43;;;;;;;;;;5118946;28;20103;-92
2021/03/07 11:34:01;;;;;;;12.02;6.88;;;;;;;;;;5119023;28;20031;-91
2021/03/07 11:36:27;;;;;;;26.38;14.18;;;;;;;;;;5119332;28;20134;-92
2021/03/07 11:38:53;;;;;;;12.60;7.07;;;;;;;;;;5118993;28;20073;-91
2021/03/07 11:41:19;;;;;;;13.57;8.35;;;;;;;;;;5119270;28;20070;-92
2021/03/07 11:43:45;;;;;;;18.48;10.45;;;;;;;;;;5120181;28;20031;-91
2021/03/07 11:46:12;;;;;;;11.60;6.72;;;;;;;;;;5118918;28;20023;-91
2021/03/07 11:48:38;;;;;;;12.30;7.53;;;;;;;;;;5118764;28;20028;-93
2021/03/07 11:51:05;;;;;;;24.05;13.00;;;;;;;;;;5118807;28;20297;-91
2021/03/07 11:53:31;;;;;;;19.90;10.02;;;;;;;;;;5118653;28;20028;-91
2021/03/07 11:55:57;;;;;;;9.15;6.00;;;;;;;;;;5118616;28;20015;-92
2021/03/07 11:58:23;;;;;;;11.25;6.72;;;;;;;;;;5117059;28;20421;-80
2021/03/07 12:00:49;;;;;;;10.65;6.40;;;;;;;;;;5117452;28;20150;-81
2021/03/07 12:03:15;;;;;;;16.30;7.85;;;;;;;;;;5116477;28;20042;-80
2021/03/07 12:05:42;;;;;;;14.77;8.90;;;;;;;;;;5116660;28;20063;-81
2021/03/07 12:08:08;;;;;;;11.20;7.80;;;;;;;;;;5114742;28;20024;-80
2021/03/07 12:10:34;;;;;;;8.88;5.70;;;;;;;;;;5115681;28;20114;-80
2021/03/07 12:13:00;;;;;;;33.58;20.77;;;;;;;;;;5117591;28;20073;-80
2021/03/07 12:15:27;;;;;;;13.65;8.32;;;;;;;;;;5118528;28;20099;-80
2021/03/07 12:17:53;;;;;;;18.15;10.68;;;;;;;;;;5117947;28;20106;-80
2021/03/07 12:20:19;;;;;;;13.25;8.40;;;;;;;;;;5117988;28;20480;-81
2021/03/07 12:22:47;;;;;;;10.45;7.38;;;;;;;;;;5118109;28;20349;-80
2021/03/07 12:25:13;;;;;;;10.25;6.75;;;;;;;;;;5118088;28;20019;-80
2021/03/07 12:27:39;;;;;;;20.17;11.77;;;;;;;;;;5116476;28;20039;-80
2021/03/07 12:30:06;;;;;;;17.70;9.45;;;;;;;;;;5117889;28;20020;-80
2021/03/07 12:32:32;;;;;;;19.23;11.07;;;;;;;;;;5117451;28;20028;-80
2021/03/07 12:34:58;;;;;;;14.98;9.07;;;;;;;;;;5117353;28;20069;-82
2021/03/07 12:37:24;;;;;;;16.13;9.68;;;;;;;;;;5116825;28;20027;-82
2021/03/07 12:39:50;;;;;;;15.13;8.32;;;;;;;;;;5117655;28;20056;-81
2021/03/07 12:42:16;;;;;;;21.02;13.93;;;;;;;;;;5117312;28;20020;-81
2021/03/07 12:44:42;;;;;;;13.73;6.68;;;;;;;;;;5117323;28;20024;-81
2021/03/07 12:47:09;;;;;;;11.50;7.22;;;;;;;;;;5115331;28;20028;-81
2021/03/07 12:49:35;;;;;;;20.45;11.48;;;;;;;;;;5116883;28;20019;-81
2021/03/07 12:52:01;;;;;;;19.95;11.63;;;;;;;;;;5115773;28;20036;-80
2021/03/07 12:54:27;;;;;;;18.90;11.63;;;;;;;;;;5117295;28;20024;-80
2021/03/07 12:56:53;;;;;;;12.27;7.25;;;;;;;;;;5116218;28;20122;-80
2021/03/07 12:59:19;;;;;;;16.17;10.23;;;;;;;;;;5117385;28;20027;-80
2021/03/07 13:01:45;;;;;;;11.90;8.23;;;;;;;;;;5116881;28;20138;-80
2021/03/07 13:04:12;;;;;;;13.93;8.88;;;;;;;;;;5116151;28;20065;-80
2021/03/07 13:06:38;;;;;;;11.88;7.93;;;;;;;;;;5120300;28;20031;-80
2021/03/07 13:09:04;;;;;;;13.45;8.20;;;;;;;;;;5137644;28;20027;-80
2021/03/07 13:11:31;;;;;;;11.23;7.60;;;;;;;;;;5137596;28;20011;-80
2021/03/07 13:13:57;;;;;;;14.15;7.82;;;;;;;;;;5138044;27;20024;-80
2021/03/07 13:16:23;;;;;;;16.45;8.38;;;;;;;;;;5137338;28;20028;-80
2021/03/07 13:18:49;;;;;;;15.70;9.10;;;;;;;;;;5137229;28;20058;-80
2021/03/07 13:21:15;;;;;;;14.30;8.65;;;;;;;;;;5137797;28;20023;-82
2021/03/07 13:23:41;;;;;;;21.20;9.75;;;;;;;;;;5137696;28;20030;-78
2021/03/07 13:26:08;;;;;;;16.13;9.07;;;;;;;;;;5137649;28;20023;-78
2021/03/07 13:28:34;;;;;;;10.40;7.28;;;;;;;;;;5137422;28;20026;-79
2021/03/07 13:31:00;;;;;;;11.95;8.18;;;;;;;;;;5138568;27;20041;-78
2021/03/07 13:33:26;;;;;;;12.65;7.88;;;;;;;;;;5141228;27;20022;-78
2021/03/07 13:35:52;;;;;;;13.50;7.80;;;;;;;;;;5141476;27;20035;-79
2021/03/07 13:38:18;;;;;;;15.68;8.45;;;;;;;;;;5141301;27;20027;-79
2021/03/07 13:40:44;;;;;;;15.48;8.85;;;;;;;;;;5141185;27;20047;-79
2021/03/07 13:43:11;;;;;;;13.02;8.07;;;;;;;;;;5141345;27;20102;-79
2021/03/07 13:45:37;;;;;;;13.07;7.53;;;;;;;;;;5141018;27;20100;-78
2021/03/07 13:48:03;;;;;;;15.98;8.27;;;;;;;;;;5141325;27;20026;-78
2021/03/07 13:50:30;;;;;;;16.80;9.20;;;;;;;;;;5141279;27;20022;-78
2021/03/07 13:52:56;;;;;;;10.57;7.22;;;;;;;;;;5141318;27;20078;-78
2021/03/07 13:55:23;;;;;;;10.65;6.75;;;;;;;;;;5141327;27;20027;-79
2021/03/07 13:57:49;;;;;;;14.45;9.40;;;;;;;;;;5140025;27;20411;-79
2021/03/07 14:00:15;;;;;;;19.85;10.65;;;;;;;;;;5140903;27;20102;-78
2021/03/07 14:02:42;;;;;;;16.35;9.27;;;;;;;;;;5140718;27;20432;-79
2021/03/07 14:05:08;;;;;;;16.85;8.38;;;;;;;;;;5140363;27;20041;-79
2021/03/07 14:07:35;;;;;;;12.88;7.85;;;;;;;;;;5140300;27;20031;-79
2021/03/07 14:10:01;;;;;;;17.38;8.77;;;;;;;;;;5140474;27;20019;-78
2021/03/07 14:12:27;;;;;;;17.58;9.07;;;;;;;;;;5140415;27;20086;-78
2021/03/07 14:14:53;;;;;;;12.57;8.50;;;;;;;;;;5139329;27;20050;-79
2021/03/07 14:17:19;;;;;;;14.27;8.38;;;;;;;;;;5139155;27;20426;-78